Time;durP1;ratioP1;P1;durP2;ratioP2;P2;SDS_P1;SDS_P2;PMS_P1;PMS_P2;Temp;Humidity;BMP_temperature;BMP_pressure;BME280_temperature;BME280_humidity;BME280_pressure;Samples;Min_cycle;Max_cycle;Signal;HPM_P1;HPM_P2
2022/04/11 00:00:45;;;;;;;9.73;2.60;;;12.20;99.90;;;;;;5015517;28;20083;-73
2022/04/11 00:03:11;;;;;;;14.60;2.58;;;12.20;99.90;;;;;;5016740;28;20431;-73
2022/04/11 00:05:37;;;;;;;10.63;2.83;;;12.20;99.90;;;;;;5019426;28;20052;-74
2022/04/11 00:08:03;;;;;;;11.35;2.45;;;12.20;99.90;;;;;;5027521;28;20041;-73
2022/04/11 00:10:30;;;;;;;10.77;2.65;;;12.20;99.90;;;;;;5003746;28;20050;-73
2022/04/11 00:13:07;;;;;;;10.15;2.50;;;12.30;99.90;;;;;;5018640;28;20041;-73
2022/04/11 00:15:34;;;;;;;12.90;2.53;;;12.20;99.90;;;;;;5019220;28;20092;-73
2022/04/11 00:18:02;;;;;;;15.70;3.10;;;12.20;99.90;;;;;;5032490;28;20030;-73
2022/04/11 00:20:28;;;;;;;11.38;2.40;;;12.20;99.90;;;;;;5016739;28;20034;-73
2022/04/11 00:22:55;;;;;;;11.82;2.67;;;12.20;99.90;;;;;;5000154;28;20038;-73
2022/04/11 00:25:21;;;;;;;10.52;2.38;;;12.20;99.90;;;;;;5034919;28;20033;-73
2022/04/11 00:27:48;;;;;;;15.80;2.33;;;12.20;99.90;;;;;;5034903;28;20180;-73
2022/04/11 00:30:14;;;;;;;9.73;1.75;;;12.20;99.90;;;;;;5018545;28;20167;-73
2022/04/11 00:32:43;;;;;;;8.40;2.05;;;12.20;99.90;;;;;;5004121;28;20042;-72
2022/04/11 00:35:10;;;;;;;10.68;1.92;;;12.10;99.90;;;;;;5032439;28;20089;-73
2022/04/11 00:37:37;;;;;;;9.48;2.15;;;12.10;99.90;;;;;;5001232;28;20092;-73
2022/04/11 00:40:04;;;;;;;8.40;2.25;;;12.10;99.90;;;;;;5034241;28;20069;-71
2022/04/11 00:42:32;;;;;;;15.05;2.85;;;12.20;99.90;;;;;;5035220;28;20037;-72
2022/04/11 00:45:03;;;;;;;14.73;2.40;;;12.20;99.90;;;;;;5020193;28;20052;-73
2022/04/11 00:47:30;;;;;;;13.23;2.67;;;12.20;99.90;;;;;;5034307;28;20045;-72
2022/04/11 00:50:00;;;;;;;14.60;2.55;;;12.00;99.90;;;;;;5034206;28;20033;-72
2022/04/11 00:52:30;;;;;;;16.08;2.47;;;12.10;99.90;;;;;;5032061;28;20117;-73
2022/04/11 00:54:57;;;;;;;10.00;2.28;;;12.00;99.90;;;;;;5018571;28;20042;-74
2022/04/11 00:57:23;;;;;;;15.82;2.75;;;12.00;99.90;;;;;;5022104;28;20401;-73
2022/04/11 00:59:51;;;;;;;11.23;2.47;;;12.10;99.90;;;;;;5039508;28;20033;-72
2022/04/11 01:02:17;;;;;;;9.40;2.33;;;12.10;99.90;;;;;;5016731;28;20066;-73
2022/04/11 01:04:44;;;;;;;10.77;2.83;;;12.10;99.90;;;;;;5024678;28;20109;-73
2022/04/11 01:07:10;;;;;;;11.02;2.35;;;12.10;99.90;;;;;;5031223;28;20042;-74
2022/04/11 01:09:37;;;;;;;14.30;2.63;;;12.10;99.90;;;;;;5022677;28;20354;-72
2022/04/11 01:12:04;;;;;;;13.50;2.80;;;12.10;99.90;;;;;;5019352;28;20053;-72
2022/04/11 01:14:30;;;;;;;9.35;2.40;;;12.00;99.90;;;;;;5005117;28;20042;-73
2022/04/11 01:17:00;;;;;;;11.13;2.55;;;12.00;99.90;;;;;;5021394;28;20409;-72
2022/04/11 01:19:27;;;;;;;10.30;2.30;;;12.00;99.90;;;;;;5022733;28;20477;-72
2022/04/11 01:21:53;;;;;;;9.80;2.30;;;12.10;99.90;;;;;;5019222;28;20053;-73
2022/04/11 01:24:21;;;;;;;9.88;2.30;;;12.00;99.90;;;;;;5018746;28;20029;-73
2022/04/11 01:26:48;;;;;;;8.88;2.10;;;12.00;99.90;;;;;;5022778;28;20036;-72
2022/04/11 01:29:16;;;;;;;12.90;3.25;;;12.00;99.90;;;;;;5040820;28;20045;-73
2022/04/11 01:31:42;;;;;;;15.75;2.53;;;12.00;99.90;;;;;;5008199;28;20026;-72
2022/04/11 01:34:08;;;;;;;9.20;2.38;;;11.90;99.90;;;;;;5026216;28;20039;-73
2022/04/11 01:36:34;;;;;;;9.65;2.10;;;11.90;99.90;;;;;;5034996;28;20041;-72
2022/04/11 01:39:01;;;;;;;13.40;2.40;;;11.80;99.90;;;;;;5020503;28;20041;-72
2022/04/11 01:41:27;;;;;;;12.75;2.75;;;11.70;99.90;;;;;;5036026;28;20516;-72
2022/04/11 01:43:53;;;;;;;12.38;2.72;;;11.70;99.90;;;;;;5017337;28;20134;-73
2022/04/11 01:46:19;;;;;;;9.18;2.35;;;11.70;99.90;;;;;;4998118;28;20116;-73
2022/04/11 01:48:46;;;;;;;14.77;2.22;;;11.70;99.90;;;;;;5018193;28;20048;-72
2022/04/11 01:51:13;;;;;;;11.48;2.80;;;11.60;99.90;;;;;;5020750;28;20432;-72
2022/04/11 01:53:40;;;;;;;9.30;2.50;;;11.60;99.90;;;;;;5019447;28;20037;-72
2022/04/11 01:56:06;;;;;;;14.48;2.63;;;11.50;99.90;;;;;;5036001;28;20188;-73
2022/04/11 01:58:32;;;;;;;8.43;2.30;;;11.50;99.90;;;;;;5017391;28;20045;-72
2022/04/11 02:00:59;;;;;;;11.00;2.33;;;11.50;99.90;;;;;;5031994;28;20358;-72
2022/04/11 02:03:26;;;;;;;12.55;2.30;;;11.50;99.90;;;;;;5016519;28;20030;-72
2022/04/11 02:05:53;;;;;;;11.27;2.45;;;11.50;99.90;;;;;;5018106;28;20389;-72
2022/04/11 02:08:20;;;;;;;8.07;1.98;;;11.50;99.90;;;;;;5016763;28;20038;-72
2022/04/11 02:10:46;;;;;;;15.18;3.00;;;11.50;99.90;;;;;;5021369;28;20496;-72
2022/04/11 02:13:12;;;;;;;10.43;2.25;;;11.40;99.90;;;;;;5019870;28;20053;-72
2022/04/11 02:15:38;;;;;;;10.93;2.30;;;11.40;99.90;;;;;;5018271;28;20045;-72
2022/04/11 02:18:05;;;;;;;12.60;2.63;;;11.50;99.90;;;;;;5007292;28;20044;-72
2022/04/11 02:20:31;;;;;;;12.13;2.30;;;11.50;99.90;;;;;;5019541;28;20042;-72
2022/04/11 02:22:59;;;;;;;14.50;2.72;;;11.50;99.90;;;;;;5017713;28;20124;-73
2022/04/11 02:25:28;;;;;;;13.00;2.80;;;11.50;99.90;;;;;;5016931;28;20140;-72
2022/04/11 02:27:57;;;;;;;11.60;2.13;;;11.60;99.90;;;;;;5036909;28;20042;-72
2022/04/11 02:30:23;;;;;;;17.50;2.55;;;11.60;99.90;;;;;;5015132;28;20045;-73
2022/04/11 02:32:50;;;;;;;15.55;2.83;;;11.60;99.90;;;;;;5018815;28;20512;-73
2022/04/11 02:35:19;;;;;;;11.85;2.85;;;11.60;99.90;;;;;;5019683;28;20041;-71
2022/04/11 02:37:46;;;;;;;16.13;2.30;;;11.50;99.90;;;;;;5013924;28;20498;-73
2022/04/11 02:40:12;;;;;;;12.25;2.53;;;11.50;99.90;;;;;;4994279;28;20040;-72
2022/04/11 02:42:42;;;;;;;13.80;3.53;;;11.50;99.90;;;;;;5023405;28;20046;-72
2022/04/11 02:45:12;;;;;;;17.17;2.67;;;11.50;99.90;;;;;;5005887;28;20042;-70
2022/04/11 02:47:39;;;;;;;12.23;3.05;;;11.40;99.90;;;;;;5028097;28;20405;-73
2022/04/11 02:50:05;;;;;;;12.05;2.33;;;11.40;99.90;;;;;;4999405;28;20101;-72
2022/04/11 02:52:32;;;;;;;12.95;2.88;;;11.50;99.90;;;;;;5017070;28;20390;-72
2022/04/11 02:54:59;;;;;;;13.15;2.83;;;11.40;99.90;;;;;;5019609;28;20124;-72
2022/04/11 02:57:25;;;;;;;11.95;2.38;;;11.50;99.90;;;;;;5016707;28;20045;-72
2022/04/11 02:59:52;;;;;;;15.00;2.50;;;11.40;99.90;;;;;;5017553;28;20044;-72
2022/04/11 03:02:19;;;;;;;12.90;2.40;;;11.40;99.90;;;;;;5019634;28;20083;-71
2022/04/11 03:04:46;;;;;;;12.45;2.45;;;11.30;99.90;;;;;;5030753;28;20049;-72
2022/04/11 03:07:12;;;;;;;14.35;2.67;;;11.30;99.90;;;;;;5017093;28;20037;-72
2022/04/11 03:09:39;;;;;;;10.75;2.10;;;11.30;99.90;;;;;;5002900;28;20073;-73
2022/04/11 03:12:06;;;;;;;14.77;2.50;;;11.30;99.90;;;;;;5019629;28;20083;-72
2022/04/11 03:14:31;;;;;;;9.60;2.15;;;11.40;99.90;;;;;;5016519;28;20157;-72
2022/04/11 03:16:58;;;;;;;8.88;2.17;;;11.30;99.90;;;;;;5007532;28;20160;-72
2022/04/11 03:19:25;;;;;;;13.15;2.70;;;11.20;99.90;;;;;;5013030;28;20136;-72
2022/04/11 03:21:52;;;;;;;14.68;2.72;;;11.30;99.90;;;;;;5033641;28;20034;-72
2022/04/11 03:24:17;;;;;;;11.70;2.60;;;11.20;99.90;;;;;;5016442;28;20136;-72
2022/04/11 03:26:43;;;;;;;10.07;2.65;;;11.10;99.90;;;;;;5019847;28;20128;-72
2022/04/11 03:29:09;;;;;;;12.93;2.97;;;11.10;99.90;;;;;;5013130;28;20065;-72
2022/04/11 03:31:35;;;;;;;11.23;2.55;;;11.10;99.90;;;;;;5018740;28;20104;-72
2022/04/11 03:34:01;;;;;;;9.77;2.50;;;11.00;99.90;;;;;;5029742;28;20034;-72
2022/04/11 03:36:27;;;;;;;12.32;2.58;;;11.00;99.90;;;;;;5030344;28;20046;-72
2022/04/11 03:38:53;;;;;;;9.75;2.13;;;11.10;99.90;;;;;;5033479;28;20365;-72
2022/04/11 03:41:19;;;;;;;9.02;2.30;;;11.10;99.90;;;;;;5020114;28;20125;-72
2022/04/11 03:43:45;;;;;;;12.80;2.45;;;11.10;99.90;;;;;;5011425;28;20136;-72
2022/04/11 03:46:11;;;;;;;11.30;2.95;;;11.00;99.90;;;;;;5009827;28;20496;-71
2022/04/11 03:48:37;;;;;;;12.35;2.53;;;11.00;99.90;;;;;;5020159;28;20158;-73
2022/04/11 03:51:03;;;;;;;12.93;2.47;;;11.00;99.90;;;;;;5020666;28;20041;-72
2022/04/11 03:53:30;;;;;;;18.15;2.85;;;11.00;99.90;;;;;;5020179;28;20119;-73
2022/04/11 03:55:57;;;;;;;9.82;2.08;;;11.10;99.90;;;;;;5014206;28;20673;-72
2022/04/11 03:58:23;;;;;;;15.18;2.83;;;11.10;99.90;;;;;;4998709;28;20029;-72
2022/04/11 04:00:49;;;;;;;15.10;2.25;;;11.20;99.90;;;;;;5021147;28;20041;-72
2022/04/11 04:03:15;;;;;;;13.98;2.67;;;11.20;99.90;;;;;;5023781;28;20041;-72
2022/04/11 04:05:42;;;;;;;11.75;2.60;;;11.20;99.90;;;;;;5023357;28;20034;-72
2022/04/11 04:08:09;;;;;;;13.65;2.42;;;11.20;99.90;;;;;;5001086;28;20082;-72
2022/04/11 04:10:35;;;;;;;11.45;2.83;;;11.10;99.90;;;;;;5021293;28;20033;-73
2022/04/11 04:13:02;;;;;;;15.05;2.47;;;11.10;99.90;;;;;;5031510;28;20436;-73
2022/04/11 04:15:29;;;;;;;11.02;2.35;;;11.10;99.90;;;;;;5032613;28;20839;-72
2022/04/11 04:17:57;;;;;;;11.40;2.42;;;11.00;99.90;;;;;;5022523;28;20038;-72
2022/04/11 04:20:26;;;;;;;13.45;2.42;;;11.00;99.90;;;;;;5035260;28;20041;-72
2022/04/11 04:22:56;;;;;;;21.00;3.15;;;11.00;99.90;;;;;;5010147;28;20091;-72
2022/04/11 04:25:22;;;;;;;10.13;2.65;;;11.00;99.90;;;;;;5036924;28;20052;-73
2022/04/11 04:27:48;;;;;;;8.93;2.53;;;11.00;99.90;;;;;;5011312;28;20127;-72
2022/04/11 04:30:15;;;;;;;9.15;2.15;;;11.00;99.90;;;;;;5032591;28;20565;-72
2022/04/11 04:32:41;;;;;;;15.30;2.80;;;11.10;99.90;;;;;;5037454;28;20081;-72
2022/04/11 04:35:08;;;;;;;9.77;2.33;;;11.00;99.90;;;;;;5019902;28;20057;-73
2022/04/11 04:37:34;;;;;;;13.85;2.42;;;11.10;99.90;;;;;;5021008;28;20038;-72
2022/04/11 04:40:02;;;;;;;6.90;2.10;;;11.10;99.90;;;;;;5003775;28;20432;-72
2022/04/11 04:42:28;;;;;;;10.70;2.75;;;11.00;99.90;;;;;;5020051;28;20073;-72
2022/04/11 04:44:55;;;;;;;10.60;2.50;;;11.00;99.90;;;;;;5034244;28;20074;-72
2022/04/11 04:47:22;;;;;;;9.60;2.50;;;11.00;99.90;;;;;;5021241;28;20049;-73
2022/04/11 04:49:48;;;;;;;11.27;2.72;;;10.90;99.90;;;;;;5021885;28;20559;-71
2022/04/11 04:52:15;;;;;;;10.70;2.38;;;10.90;99.90;;;;;;5034431;28;20519;-72
2022/04/11 04:54:41;;;;;;;16.15;2.85;;;10.90;99.90;;;;;;5037431;28;20111;-72
2022/04/11 04:57:07;;;;;;;14.02;2.92;;;10.80;99.90;;;;;;5017899;28;20462;-71
2022/04/11 04:59:33;;;;;;;14.45;3.15;;;10.90;99.90;;;;;;5035875;28;20069;-72
2022/04/11 05:02:00;;;;;;;14.25;3.22;;;10.90;99.90;;;;;;5000272;28;20037;-72
2022/04/11 05:04:26;;;;;;;9.85;2.63;;;10.90;99.90;;;;;;5018159;28;20134;-72
2022/04/11 05:06:51;;;;;;;14.23;3.90;;;11.00;99.90;;;;;;5017630;28;20037;-72
2022/04/11 05:09:18;;;;;;;13.95;2.95;;;10.90;99.90;;;;;;5019874;28;20048;-72
2022/04/11 05:11:45;;;;;;;14.25;3.80;;;11.00;99.90;;;;;;5016851;28;20446;-73
2022/04/11 05:14:11;;;;;;;11.95;3.50;;;10.90;99.90;;;;;;5034144;28;20036;-72
2022/04/11 05:16:37;;;;;;;13.40;2.65;;;10.90;99.90;;;;;;5022833;28;20049;-72
2022/04/11 05:19:04;;;;;;;12.77;2.85;;;10.90;99.90;;;;;;5003733;28;20034;-73
2022/04/11 05:21:31;;;;;;;14.80;2.90;;;10.90;99.90;;;;;;5019332;28;20045;-72
2022/04/11 05:23:57;;;;;;;14.73;3.50;;;10.80;99.90;;;;;;5023943;28;20046;-72
2022/04/11 05:26:23;;;;;;;11.23;2.78;;;10.80;99.90;;;;;;5020219;28;20038;-72
2022/04/11 05:28:50;;;;;;;10.00;2.78;;;10.90;99.90;;;;;;5022438;28;20095;-72
2022/04/11 05:31:18;;;;;;;11.48;2.63;;;11.00;99.90;;;;;;5019307;28;20496;-72
2022/04/11 05:33:44;;;;;;;13.55;2.92;;;11.10;99.90;;;;;;5008704;28;20496;-72
2022/04/11 05:36:11;;;;;;;10.73;2.47;;;11.10;99.90;;;;;;5032063;28;20119;-72
2022/04/11 05:38:37;;;;;;;16.65;3.20;;;11.20;99.90;;;;;;5022215;28;20495;-72
2022/04/11 05:41:03;;;;;;;15.65;2.88;;;11.30;99.90;;;;;;5017719;28;20049;-73
2022/04/11 05:43:31;;;;;;;12.02;3.13;;;11.30;99.90;;;;;;5018200;28;20586;-71
2022/04/11 05:45:57;;;;;;;18.40;3.65;;;11.40;99.90;;;;;;5037318;28;20037;-72
2022/04/11 05:48:23;;;;;;;12.20;2.90;;;11.60;99.90;;;;;;5015572;28;20584;-73
2022/04/11 05:50:48;;;;;;;14.27;3.15;;;11.60;99.90;;;;;;5018449;28;20038;-72
2022/04/11 05:53:14;;;;;;;13.35;3.05;;;11.60;99.90;;;;;;5019310;28;20139;-72
2022/04/11 05:55:40;;;;;;;12.18;3.15;;;11.60;99.90;;;;;;5005829;28;20092;-72
2022/04/11 05:58:06;;;;;;;16.02;3.67;;;11.60;99.90;;;;;;4996194;28;20034;-72
2022/04/11 06:00:32;;;;;;;10.98;3.67;;;11.70;99.90;;;;;;5018378;28;20033;-72
2022/04/11 06:02:59;;;;;;;13.52;3.47;;;11.80;99.90;;;;;;5019451;28;20049;-72
2022/04/11 06:05:25;;;;;;;20.63;4.13;;;11.80;99.90;;;;;;4997369;28;20049;-73
2022/04/11 06:07:50;;;;;;;16.20;3.78;;;11.90;99.90;;;;;;5022044;28;20053;-72
2022/04/11 06:10:17;;;;;;;15.73;4.05;;;12.00;99.90;;;;;;4998382;28;20092;-72
2022/04/11 06:12:43;;;;;;;13.00;3.92;;;12.20;99.90;;;;;;5003185;28;20513;-73
2022/04/11 06:15:11;;;;;;;14.13;3.20;;;12.30;99.90;;;;;;5018495;28;20053;-72
2022/04/11 06:17:38;;;;;;;10.98;3.15;;;12.40;99.90;;;;;;5000455;28;20033;-73
2022/04/11 06:20:05;;;;;;;15.75;3.40;;;12.50;99.90;;;;;;5033944;28;20041;-73
2022/04/11 06:22:31;;;;;;;16.25;4.22;;;12.60;99.90;;;;;;5032501;28;20076;-73
2022/04/11 06:25:00;;;;;;;8.93;3.20;;;12.70;99.90;;;;;;5035671;28;20321;-72
2022/04/11 06:27:27;;;;;;;20.30;4.03;;;12.80;99.90;;;;;;5015624;28;20489;-72
2022/04/11 06:29:57;;;;;;;17.63;3.78;;;12.80;99.90;;;;;;5023424;28;20128;-72
2022/04/11 06:32:28;;;;;;;10.70;3.47;;;12.90;99.90;;;;;;5016156;28;20033;-72
2022/04/11 06:34:54;;;;;;;13.23;3.30;;;13.00;99.90;;;;;;5022309;28;20378;-72
2022/04/11 06:37:21;;;;;;;17.23;4.28;;;13.10;99.90;;;;;;5016865;28;20394;-72
2022/04/11 06:39:47;;;;;;;16.23;4.57;;;13.20;99.90;;;;;;5019580;28;20441;-73
2022/04/11 06:42:13;;;;;;;18.63;5.13;;;13.20;99.90;;;;;;4998145;28;20054;-73
2022/04/11 06:44:39;;;;;;;16.13;5.50;;;13.30;99.90;;;;;;5007621;28;20415;-72
2022/04/11 06:47:06;;;;;;;17.20;6.00;;;13.30;99.90;;;;;;5030665;28;20045;-72
2022/04/11 06:49:32;;;;;;;19.10;7.00;;;13.40;99.90;;;;;;5016025;28;20033;-73
2022/04/11 06:51:58;;;;;;;18.27;6.07;;;13.40;99.90;;;;;;5019239;28;20116;-74
2022/04/11 06:54:24;;;;;;;19.05;5.82;;;13.40;99.90;;;;;;5000471;28;20481;-72
2022/04/11 06:56:50;;;;;;;19.67;6.10;;;13.40;99.90;;;;;;5019360;28;20374;-73
2022/04/11 06:59:17;;;;;;;20.90;6.30;;;13.40;99.90;;;;;;5019482;28;20038;-73
2022/04/11 07:01:43;;;;;;;24.35;6.47;;;13.50;99.90;;;;;;5000094;28;20605;-73
2022/04/11 07:04:09;;;;;;;21.88;7.22;;;13.50;99.90;;;;;;5017611;28;20133;-72
2022/04/11 07:06:35;;;;;;;18.00;6.00;;;13.60;99.90;;;;;;5037957;28;20116;-72
2022/04/11 07:09:01;;;;;;;22.30;6.75;;;13.70;99.90;;;;;;5027911;28;20584;-73
2022/04/11 07:11:30;;;;;;;20.95;6.82;;;13.80;99.90;;;;;;5001595;28;20051;-72
2022/04/11 07:13:56;;;;;;;26.83;7.72;;;13.90;99.90;;;;;;5019497;28;20129;-72
2022/04/11 07:16:24;;;;;;;21.33;7.28;;;13.90;99.90;;;;;;5027163;28;20460;-73
2022/04/11 07:18:51;;;;;;;23.65;7.20;;;14.00;99.90;;;;;;5028912;28;20038;-72
2022/04/11 07:21:18;;;;;;;24.08;6.97;;;14.00;99.90;;;;;;5014998;28;20420;-72
2022/04/11 07:23:44;;;;;;;26.67;6.78;;;14.10;99.90;;;;;;5018811;28;20501;-72
2022/04/11 07:26:11;;;;;;;24.98;7.30;;;14.20;99.90;;;;;;5006802;28;20037;-75
2022/04/11 07:28:38;;;;;;;21.88;6.90;;;14.20;99.90;;;;;;5019267;28;20048;-73
2022/04/11 07:31:04;;;;;;;18.55;6.60;;;14.30;99.90;;;;;;5014291;28;20053;-74
2022/04/11 07:33:30;;;;;;;23.30;6.88;;;14.40;99.90;;;;;;5037924;28;20129;-73
2022/04/11 07:35:56;;;;;;;17.70;6.15;;;14.40;99.90;;;;;;5015958;28;20056;-71
2022/04/11 07:38:22;;;;;;;22.85;6.65;;;14.40;99.90;;;;;;5017065;28;20046;-74
2022/04/11 07:40:50;;;;;;;20.05;6.10;;;14.50;99.90;;;;;;4999523;28;20034;-73
2022/04/11 07:43:16;;;;;;;19.00;5.68;;;14.60;99.90;;;;;;5031737;28;20516;-73
2022/04/11 07:45:43;;;;;;;14.32;4.93;;;14.70;99.90;;;;;;5018933;28;20042;-73
2022/04/11 07:48:09;;;;;;;16.50;5.53;;;14.70;99.90;;;;;;5034015;28;20065;-73
2022/04/11 07:50:35;;;;;;;16.23;4.20;;;14.70;99.90;;;;;;5000134;28;20049;-72
2022/04/11 07:53:01;;;;;;;16.98;4.43;;;14.70;99.90;;;;;;5029410;28;20046;-71
2022/04/11 07:55:27;;;;;;;13.40;4.38;;;14.80;99.90;;;;;;5016404;28;20390;-72
2022/04/11 07:57:54;;;;;;;22.45;4.57;;;14.90;99.90;;;;;;5038155;28;20041;-72
2022/04/11 08:00:21;;;;;;;14.15;4.10;;;15.00;99.90;;;;;;5032209;28;20037;-73
2022/04/11 08:02:55;;;;;;;13.95;3.95;;;15.00;99.90;;;;;;5030526;28;20179;-73
2022/04/11 08:05:22;;;;;;;13.45;3.92;;;15.10;99.90;;;;;;5035393;28;20045;-73
2022/04/11 08:07:49;;;;;;;15.35;3.50;;;15.10;99.90;;;;;;5014515;28;20072;-72
2022/04/11 08:10:16;;;;;;;14.82;3.60;;;15.20;99.90;;;;;;5005016;28;20056;-72
2022/04/11 08:12:57;;;;;;;20.17;4.68;;;15.20;99.90;;;;;;4999467;28;20038;-73
2022/04/11 08:15:24;;;;;;;11.27;3.53;;;15.30;99.90;;;;;;5031146;28;20042;-73
2022/04/11 08:17:51;;;;;;;13.85;3.42;;;15.40;99.90;;;;;;5019467;28;20432;-73
2022/04/11 08:20:20;;;;;;;21.00;4.22;;;15.50;99.90;;;;;;5012665;28;20034;-73
2022/04/11 08:22:46;;;;;;;24.17;4.10;;;15.60;99.90;;;;;;5019948;28;20048;-73
2022/04/11 08:25:17;;;;;;;16.42;3.60;;;15.70;99.90;;;;;;5016697;28;20103;-73
2022/04/11 08:27:44;;;;;;;13.15;3.47;;;15.80;99.90;;;;;;5020549;28;20134;-73
2022/04/11 08:30:13;;;;;;;16.98;3.47;;;15.90;99.90;;;;;;5014997;28;20092;-72
2022/04/11 08:32:52;;;;;;;12.98;3.58;;;16.10;99.90;;;;;;5029182;28;20614;-73
2022/04/11 08:35:22;;;;;;;12.40;4.38;;;17.70;99.90;;;;;;5015506;28;20077;-73
2022/04/11 08:37:48;;;;;;;12.30;4.07;;;19.30;99.90;;;;;;5032813;28;20033;-73
2022/04/11 08:40:19;;;;;;;17.08;4.20;;;20.10;99.90;;;;;;4995983;28;20046;-73
2022/04/11 08:42:45;;;;;;;13.02;3.53;;;20.50;99.60;;;;;;5000294;28;20036;-72
2022/04/11 08:45:13;;;;;;;16.35;3.83;;;20.60;99.10;;;;;;5006073;28;20543;-72
2022/04/11 08:47:41;;;;;;;11.68;3.65;;;20.90;98.60;;;;;;5008663;28;20046;-73
2022/04/11 08:50:07;;;;;;;14.32;3.65;;;19.90;99.50;;;;;;5006855;28;20555;-72
2022/04/11 08:52:35;;;;;;;13.27;3.10;;;19.90;99.90;;;;;;5019428;28;20128;-73
2022/04/11 08:55:02;;;;;;;15.68;2.80;;;21.20;99.90;;;;;;5003729;28;20069;-73
2022/04/11 08:57:28;;;;;;;16.67;2.90;;;20.00;99.90;;;;;;5023897;28;20500;-73
2022/04/11 08:59:55;;;;;;;14.30;3.45;;;19.30;99.90;;;;;;5006552;28;20117;-72
2022/04/11 09:02:32;;;;;;;12.38;2.75;;;20.30;99.90;;;;;;5004980;28;20038;-74
2022/04/11 09:04:58;;;;;;;12.25;2.92;;;20.60;99.90;;;;;;5015788;28;20042;-73
2022/04/11 09:07:24;;;;;;;17.45;3.13;;;19.60;99.90;;;;;;4994311;28;20100;-73
2022/04/11 09:09:50;;;;;;;11.07;2.45;;;19.40;99.90;;;;;;5004851;28;20042;-73
2022/04/11 09:12:19;;;;;;;19.25;3.58;;;19.30;99.90;;;;;;5020565;28;20037;-73
2022/04/11 09:14:54;;;;;;;12.00;2.97;;;20.60;99.90;;;;;;5019966;28;20457;-73
2022/04/11 09:17:24;;;;;;;16.95;3.30;;;19.40;99.90;;;;;;5002337;28;20629;-73
2022/04/11 09:20:12;;;;;;;17.20;3.20;;;20.00;99.90;;;;;;5007493;28;20125;-72
2022/04/11 09:22:39;;;;;;;12.80;2.88;;;19.90;99.90;;;;;;5007602;28;20146;-73
2022/04/11 09:25:32;;;;;;;15.80;4.07;;;19.40;99.90;;;;;;5018607;28;20119;-73
2022/04/11 09:28:16;;;;;;;16.63;2.72;;;18.80;99.90;;;;;;5003909;28;20048;-73
2022/04/11 09:30:45;;;;;;;12.20;2.45;;;19.00;99.90;;;;;;5020762;28;20493;-72
2022/04/11 09:33:13;;;;;;;11.90;2.40;;;19.10;99.90;;;;;;5016626;28;20049;-72
2022/04/11 09:35:40;;;;;;;18.80;2.65;;;18.90;99.90;;;;;;5035584;28;20038;-73
2022/04/11 09:38:18;;;;;;;12.70;3.03;;;19.10;99.90;;;;;;4990628;28;20029;-72
2022/04/11 09:40:45;;;;;;;13.15;2.83;;;18.80;99.90;;;;;;5005649;28;20044;-73
2022/04/11 09:43:13;;;;;;;11.65;2.20;;;18.70;99.90;;;;;;4987022;28;20057;-73
2022/04/11 09:45:47;;;;;;;14.73;2.85;;;18.90;99.90;;;;;;5008207;28;20049;-73
2022/04/11 09:48:25;;;;;;;16.08;3.00;;;18.50;99.90;;;;;;5017421;28;20050;-73
2022/04/11 09:50:53;;;;;;;10.05;2.75;;;18.60;99.90;;;;;;5004558;28;20033;-73
2022/04/11 09:53:21;;;;;;;15.60;3.70;;;19.90;99.90;;;;;;4994450;28;20052;-73
2022/04/11 09:55:50;;;;;;;14.25;3.10;;;20.70;99.90;;;;;;4994011;28;20164;-75
2022/04/11 09:58:18;;;;;;;15.40;2.55;;;20.70;99.90;;;;;;5020104;28;20096;-74
2022/04/11 10:00:44;;;;;;;13.00;2.55;;;21.10;99.90;;;;;;4987316;28;20052;-72
2022/04/11 10:03:11;;;;;;;15.23;2.90;;;20.20;99.90;;;;;;5017269;28;20060;-73
2022/04/11 10:05:38;;;;;;;14.38;2.78;;;19.60;99.90;;;;;;5023393;28;20488;-73
2022/04/11 10:08:09;;;;;;;11.35;2.47;;;19.20;99.90;;;;;;5002291;28;20156;-72
2022/04/11 10:10:40;;;;;;;15.68;3.08;;;19.40;99.90;;;;;;5004009;28;20361;-74
2022/04/11 10:13:16;;;;;;;10.70;2.92;;;19.80;99.90;;;;;;4988201;28;20041;-72
2022/04/11 10:15:46;;;;;;;10.35;2.95;;;19.40;99.90;;;;;;5007464;28;20064;-72
2022/04/11 10:18:21;;;;;;;13.63;2.85;;;19.90;99.90;;;;;;5023171;28;20049;-73
2022/04/11 10:20:51;;;;;;;17.20;2.95;;;19.30;99.90;;;;;;5005881;28;20086;-74
2022/04/11 10:23:31;;;;;;;14.02;3.90;;;18.80;99.90;;;;;;5024614;28;20065;-72
2022/04/11 10:25:59;;;;;;;17.27;2.90;;;19.20;99.90;;;;;;4988886;28;20049;-73
2022/04/11 10:28:30;;;;;;;14.55;3.95;;;18.80;99.90;;;;;;5002657;28;20049;-73
2022/04/11 10:31:10;;;;;;;17.23;2.88;;;18.80;99.90;;;;;;5011115;28;20089;-73
2022/04/11 10:33:57;;;;;;;12.50;2.72;;;19.50;99.90;;;;;;5019839;28;20029;-73
2022/04/11 10:36:28;;;;;;;21.38;3.83;;;19.30;99.90;;;;;;5000410;28;20129;-73
2022/04/11 10:39:18;;;;;;;16.53;3.00;;;19.40;99.90;;;;;;5015539;28;20049;-74
2022/04/11 10:42:00;;;;;;;14.00;2.70;;;19.60;99.90;;;;;;5010951;28;20073;-74
2022/04/11 10:44:45;;;;;;;17.13;3.50;;;19.60;99.90;;;;;;4985702;28;20156;-72
2022/04/11 10:47:11;;;;;;;14.63;3.30;;;19.40;99.90;;;;;;4994089;28;20053;-72
2022/04/11 10:49:55;;;;;;;18.02;3.55;;;19.40;99.90;;;;;;5018472;28;20064;-74
2022/04/11 10:52:28;;;;;;;15.65;3.42;;;19.10;99.90;;;;;;4998159;28;20030;-73
2022/04/11 10:54:56;;;;;;;14.07;2.75;;;18.60;99.90;;;;;;5000841;28;20100;-75
2022/04/11 10:57:36;;;;;;;11.30;2.40;;;18.80;99.90;;;;;;5013552;28;20037;-72
2022/04/11 11:00:06;;;;;;;15.75;3.17;;;18.60;99.90;;;;;;4990506;28;20053;-73
2022/04/11 11:02:59;;;;;;;17.20;3.72;;;18.60;99.90;;;;;;5004075;28;20037;-74
2022/04/11 11:05:48;;;;;;;15.73;3.15;;;19.40;99.90;;;;;;4994730;28;20073;-73
2022/04/11 11:08:14;;;;;;;17.17;2.75;;;19.00;99.90;;;;;;5005745;28;20080;-73
2022/04/11 11:10:52;;;;;;;10.57;2.65;;;19.20;99.90;;;;;;5015031;28;20228;-73
2022/04/11 11:13:40;;;;;;;10.80;2.63;;;19.10;99.90;;;;;;5007346;28;20553;-74
2022/04/11 11:16:11;;;;;;;12.13;2.95;;;20.00;99.90;;;;;;5003354;28;20037;-73
2022/04/11 11:18:47;;;;;;;16.53;3.63;;;20.40;99.90;;;;;;5019686;28;20069;-74
2022/04/11 11:21:19;;;;;;;17.55;2.92;;;20.10;99.90;;;;;;4990994;28;20083;-72
2022/04/11 11:24:15;;;;;;;13.68;2.80;;;21.10;99.90;;;;;;5006095;28;20148;-74
2022/04/11 11:26:48;;;;;;;12.05;3.17;;;21.60;99.90;;;;;;5016737;28;20944;-73
2022/04/11 11:29:18;;;;;;;13.77;3.25;;;21.80;99.70;;;;;;4988689;28;20392;-75
2022/04/11 11:31:45;;;;;;;15.15;3.10;;;22.50;98.80;;;;;;5001562;28;20058;-74
2022/04/11 11:34:14;;;;;;;9.43;2.58;;;22.50;98.30;;;;;;4990471;28;20137;-73
2022/04/11 11:36:41;;;;;;;16.30;3.13;;;23.20;97.60;;;;;;4999760;28;20060;-74
2022/04/11 11:39:16;;;;;;;9.27;2.45;;;23.50;97.00;;;;;;5017520;28;20100;-73
2022/04/11 11:41:43;;;;;;;12.50;2.70;;;23.60;96.30;;;;;;5006635;28;20417;-74
2022/04/11 11:44:10;;;;;;;10.52;2.40;;;23.80;96.10;;;;;;5006390;28;20567;-74
2022/04/11 11:46:56;;;;;;;12.45;2.67;;;23.70;95.90;;;;;;5019541;28;20038;-74
2022/04/11 11:49:24;;;;;;;14.00;3.20;;;23.90;95.70;;;;;;5014264;28;20211;-75
2022/04/11 11:51:53;;;;;;;9.10;2.58;;;24.00;95.60;;;;;;5020201;28;20036;-74
2022/04/11 11:54:37;;;;;;;11.45;3.03;;;23.70;95.70;;;;;;5021110;28;20034;-74
2022/04/11 11:57:17;;;;;;;10.55;2.60;;;23.70;95.70;;;;;;5003077;28;20053;-73
2022/04/11 12:00:01;;;;;;;13.18;2.75;;;24.00;95.30;;;;;;5013360;28;20508;-72
2022/04/11 12:05:27;;;;;;;12.25;2.47;;;24.60;94.20;;;;;;4991637;28;20036;-73
2022/04/11 12:08:08;;;;;;;11.90;2.70;;;25.10;94.20;;;;;;5017264;28;20037;-76
2022/04/11 12:10:35;;;;;;;9.55;2.72;;;25.20;94.00;;;;;;5032491;28;20053;-72
2022/04/11 12:13:01;;;;;;;17.73;2.85;;;25.00;93.80;;;;;;5036600;28;20065;-73
2022/04/11 12:15:31;;;;;;;11.10;2.63;;;24.50;93.90;;;;;;5028828;28;20085;-72
2022/04/11 12:18:06;;;;;;;11.50;2.53;;;25.20;93.90;;;;;;5015480;28;20073;-73
2022/04/11 12:20:33;;;;;;;16.38;3.25;;;24.50;94.20;;;;;;5015939;28;20467;-72
2022/04/11 12:23:17;;;;;;;13.15;2.88;;;24.00;94.60;;;;;;5039952;28;20038;-73
2022/04/11 12:25:52;;;;;;;11.23;2.70;;;24.00;94.80;;;;;;5038646;28;20180;-73
2022/04/11 12:28:24;;;;;;;11.80;3.33;;;22.70;95.70;;;;;;5039733;28;20475;-72
2022/04/11 12:31:02;;;;;;;11.52;3.53;;;22.40;96.30;;;;;;5036554;28;20556;-73
2022/04/11 12:33:43;;;;;;;14.60;3.17;;;22.90;96.10;;;;;;5033473;28;20033;-73
2022/04/11 12:36:23;;;;;;;14.18;3.53;;;22.90;96.10;;;;;;5018010;28;20046;-73
2022/04/11 12:38:55;;;;;;;15.70;3.78;;;22.90;96.40;;;;;;5035171;28;20038;-73
2022/04/11 12:41:29;;;;;;;12.98;3.10;;;23.90;95.90;;;;;;5019873;28;20041;-72
2022/04/11 12:43:59;;;;;;;10.45;2.65;;;24.30;95.10;;;;;;5037517;28;20072;-72
2022/04/11 12:46:26;;;;;;;11.85;2.65;;;24.10;94.80;;;;;;5004523;28;20029;-72
2022/04/11 12:48:58;;;;;;;8.95;2.30;;;23.30;95.50;;;;;;5021334;28;20398;-72